createdAt,value
2023-03-06T00:01:28.455Z,85.04
2023-03-06T00:06:33.936Z,85.40
2023-03-06T00:11:37.341Z,85.12
2023-03-06T00:16:40.528Z,86.02
2023-03-06T00:21:44.937Z,86.11
2023-03-06T00:26:48.020Z,85.88
2023-03-06T00:31:51.391Z,86.03
2023-03-06T00:36:56.056Z,86.54
2023-03-06T00:41:59.193Z,86.19
2023-03-06T00:47:02.572Z,86.34
2023-03-06T00:52:07.582Z,86.75
2023-03-06T00:57:11.223Z,86.67
2023-03-06T01:02:14.729Z,86.85
2023-03-06T01:07:19.200Z,87.23
2023-03-06T01:12:23.607Z,86.89
2023-03-06T01:17:26.929Z,86.88
2023-03-06T01:22:31.446Z,87.19
2023-03-06T01:27:34.732Z,87.70
2023-03-06T01:32:38.101Z,87.59
2023-03-06T01:37:43.020Z,87.98
2023-03-06T01:42:46.932Z,87.86
2023-03-06T01:47:50.285Z,87.47
2023-03-06T01:52:58.885Z,88.57
2023-03-06T01:58:07.429Z,88.22
2023-03-06T02:03:15.235Z,88.47
2023-03-06T02:08:21.993Z,88.18
2023-03-06T02:13:25.318Z,88.99
2023-03-06T02:18:29.416Z,88.66
2023-03-06T02:23:43.439Z,88.40
2023-03-06T02:28:48.391Z,88.99
2023-03-06T02:34:06.330Z,88.62
2023-03-06T02:39:11.233Z,88.78
2023-03-06T02:44:15.841Z,88.73
2023-03-06T02:49:18.986Z,88.61
2023-03-06T02:54:22.415Z,88.83
2023-03-06T02:59:27.070Z,88.95
2023-03-06T03:04:30.576Z,88.62
2023-03-06T03:09:37.057Z,88.36
2023-03-06T03:14:42.355Z,88.51
2023-03-06T03:19:45.881Z,88.34
2023-03-06T03:24:49.507Z,88.96
2023-03-06T03:29:54.163Z,88.78
2023-03-06T03:34:57.878Z,88.84
2023-03-06T03:40:01.562Z,88.75
2023-03-06T03:45:07.190Z,89.34
2023-03-06T03:50:12.203Z,88.92
2023-03-06T03:55:15.394Z,89.52
2023-03-06T04:00:20.784Z,89.83
2023-03-06T04:05:24.324Z,89.36
2023-03-06T04:10:27.502Z,90.00
2023-03-06T04:15:32.159Z,89.35
2023-03-06T04:20:35.494Z,89.58
2023-03-06T04:25:39.186Z,89.19
2023-03-06T04:30:43.789Z,89.66
2023-03-06T04:35:47.077Z,89.38
2023-03-06T04:40:50.758Z,89.46
2023-03-06T04:45:55.500Z,89.68
2023-03-06T04:50:58.992Z,89.03
2023-03-06T04:56:02.267Z,89.73
2023-03-06T05:01:07.420Z,89.60
2023-03-06T05:06:10.691Z,89.41
2023-03-06T05:11:13.933Z,90.00
2023-03-06T05:16:18.778Z,89.38
2023-03-06T05:21:21.986Z,89.65
2023-03-06T05:26:25.096Z,89.77
2023-03-06T05:31:29.904Z,89.70
2023-03-06T05:36:33.346Z,90.08
2023-03-06T05:41:36.840Z,89.79
2023-03-06T05:46:41.635Z,90.80
2023-03-06T05:51:44.943Z,90.48
2023-03-06T05:56:48.196Z,89.65
2023-03-06T06:01:52.799Z,90.17
2023-03-06T06:06:58.597Z,89.96
2023-03-06T06:12:04.406Z,90.08
2023-03-06T06:17:11.368Z,90.17
2023-03-06T06:22:15.030Z,89.92
2023-03-06T06:27:18.567Z,89.81
2023-03-06T06:32:28.864Z,89.18
2023-03-06T06:37:32.277Z,88.85
2023-03-06T06:42:39.964Z,89.16
2023-03-06T06:47:46.252Z,88.79
2023-03-06T06:52:49.589Z,88.29
2023-03-06T06:57:52.841Z,87.76
2023-03-06T07:02:59.717Z,88.29
2023-03-06T07:08:03.145Z,87.96
2023-03-06T07:13:06.428Z,87.83
2023-03-06T07:18:11.184Z,88.65
2023-03-06T07:23:14.565Z,88.09
2023-03-06T07:28:19.374Z,88.41
2023-03-06T07:33:24.263Z,88.81
2023-03-06T07:38:27.568Z,89.07
2023-03-06T07:43:30.826Z,89.21
2023-03-06T07:48:35.844Z,89.21
2023-03-06T07:53:39.179Z,89.40
2023-03-06T07:58:44.783Z,90.07
2023-03-06T08:03:50.263Z,90.83
2023-03-06T08:08:55.392Z,90.97
2023-03-06T08:13:59.587Z,91.69
2023-03-06T08:19:04.158Z,92.01
2023-03-06T08:24:08.535Z,92.22
2023-03-06T08:29:12.921Z,93.09
2023-03-06T08:34:19.259Z,93.43
2023-03-06T08:39:23.721Z,93.49
2023-03-06T08:44:26.931Z,93.80
2023-03-06T08:49:31.770Z,93.89
2023-03-06T08:54:36.161Z,94.33
2023-03-06T08:59:39.635Z,94.60
2023-03-06T09:04:44.373Z,94.42
2023-03-06T09:09:47.909Z,94.27
2023-03-06T09:14:51.488Z,94.77
2023-03-06T09:19:56.152Z,94.96
2023-03-06T09:25:02.960Z,94.93
2023-03-06T09:30:09.286Z,94.71
2023-03-06T09:35:15.882Z,94.37
2023-03-06T09:40:26.413Z,94.34
2023-03-06T09:45:38.309Z,93.34
2023-03-06T09:50:47.699Z,93.20
2023-03-06T09:55:58.301Z,91.61
2023-03-06T10:01:05.784Z,91.19
2023-03-06T10:06:17.257Z,91.04
2023-03-06T10:11:26.271Z,89.67
2023-03-06T10:16:31.863Z,89.57
2023-03-06T10:21:44.816Z,88.51
2023-03-06T10:26:53.896Z,87.88
2023-03-06T10:32:05.592Z,86.99
2023-03-06T10:37:20.357Z,87.54
2023-03-06T10:42:24.586Z,87.68
2023-03-06T10:47:35.340Z,87.16
2023-03-06T10:52:41.283Z,86.28
2023-03-06T10:57:44.379Z,86.95
2023-03-06T11:02:47.561Z,86.44
2023-03-06T11:07:57.529Z,84.39
2023-03-06T11:13:02.890Z,84.92
2023-03-06T11:18:28.924Z,83.73
2023-03-06T11:23:40.062Z,83.63
2023-03-06T11:28:47.444Z,82.82
2023-03-06T11:33:56.009Z,83.38
2023-03-06T11:39:01.672Z,82.07
2023-03-06T11:44:15.636Z,81.70
2023-03-06T11:49:24.042Z,82.44
2023-03-06T11:54:28.674Z,82.14
2023-03-06T11:59:52.617Z,81.31
2023-03-06T12:05:10.996Z,79.73
2023-03-06T12:10:20.602Z,79.00
2023-03-06T12:15:41.279Z,79.45
2023-03-06T12:20:56.957Z,82.02
2023-03-06T12:26:10.821Z,82.38
2023-03-06T12:31:46.392Z,83.07
2023-03-06T12:37:02.438Z,84.07
2023-03-06T12:42:32.766Z,84.60
2023-03-06T12:47:43.170Z,85.70
2023-03-06T12:52:49.309Z,87.23
2023-03-06T12:57:54.632Z,86.60
2023-03-06T13:03:13.014Z,86.39
2023-03-06T13:08:32.980Z,86.38
2023-03-06T13:13:45.335Z,85.37
2023-03-06T13:18:52.820Z,85.40
2023-03-06T13:24:06.319Z,85.24
2023-03-06T13:29:42.639Z,86.61
2023-03-06T13:34:48.870Z,85.75
2023-03-06T13:40:16.640Z,87.31
2023-03-06T13:45:26.088Z,87.01
2023-03-06T13:50:38.107Z,89.12
2023-03-06T13:55:51.998Z,90.00
2023-03-06T14:01:35.163Z,89.10
2023-03-06T14:07:06.521Z,90.17
2023-03-06T14:12:20.368Z,90.00
2023-03-06T14:17:29.411Z,90.41
2023-03-06T14:22:33.929Z,90.36
2023-03-06T14:27:45.764Z,90.08
2023-03-06T14:32:51.499Z,90.54
2023-03-06T14:37:59.799Z,89.49
2023-03-06T14:43:21.670Z,89.35
2023-03-06T14:48:27.065Z,88.63
2023-03-06T14:53:33.980Z,88.79
2023-03-06T14:58:45.536Z,88.83
2023-03-06T15:03:54.430Z,87.84
2023-03-06T15:09:04.753Z,87.61
2023-03-06T15:14:20.048Z,87.30
2023-03-06T15:19:24.192Z,87.29
2023-03-06T15:24:35.318Z,86.88
2023-03-06T15:29:40.213Z,86.82
2023-03-06T15:34:43.523Z,87.30
2023-03-06T15:40:08.209Z,86.69
2023-03-06T15:45:17.157Z,87.10
2023-03-06T15:50:21.992Z,87.34
2023-03-06T15:55:27.650Z,88.98
2023-03-06T16:00:34.243Z,89.12
2023-03-06T16:05:37.518Z,90.33
2023-03-06T16:10:43.806Z,90.57
2023-03-06T16:15:49.372Z,90.42
2023-03-06T16:20:52.645Z,90.59
2023-03-06T16:25:57.509Z,90.32
2023-03-06T16:31:01.086Z,91.16
2023-03-06T16:36:13.483Z,91.27
2023-03-06T16:41:19.169Z,91.39
2023-03-06T16:46:25.221Z,90.89
2023-03-06T16:51:28.458Z,91.13
2023-03-06T16:56:33.038Z,91.99
2023-03-06T17:01:36.348Z,92.69
2023-03-06T17:06:41.870Z,92.64
2023-03-06T17:11:46.985Z,92.88
2023-03-06T17:16:50.543Z,93.04
2023-03-06T17:21:53.942Z,92.90
2023-03-06T17:26:58.689Z,94.03
2023-03-06T17:32:02.157Z,94.00
2023-03-06T17:37:05.566Z,94.29
2023-03-06T17:42:10.349Z,94.77
2023-03-06T17:47:13.860Z,95.01
2023-03-06T17:52:17.046Z,95.33
2023-03-06T17:57:22.189Z,95.57
2023-03-06T18:02:25.806Z,96.59
2023-03-06T18:07:29.136Z,97.24
2023-03-06T18:12:33.946Z,97.58
2023-03-06T18:17:37.321Z,97.90
2023-03-06T18:22:40.631Z,98.14
2023-03-06T18:27:45.555Z,97.43
2023-03-06T18:32:48.763Z,97.81
2023-03-06T18:37:55.780Z,97.52
2023-03-06T18:43:00.814Z,98.26
2023-03-06T18:48:05.013Z,98.41
2023-03-06T18:53:08.611Z,98.64
2023-03-06T18:58:14.249Z,99.12
2023-03-06T19:03:21.070Z,99.05
2023-03-06T19:08:25.002Z,98.85
2023-03-06T19:13:29.913Z,98.82
2023-03-06T19:18:33.263Z,98.95
2023-03-06T19:23:36.484Z,98.49
2023-03-06T19:28:43.381Z,99.40
2023-03-06T19:33:48.605Z,99.79
2023-03-06T19:38:55.189Z,99.69
2023-03-06T19:44:02.498Z,100.00
2023-03-06T19:49:12.017Z,100.00
2023-03-06T19:54:16.951Z,100.00
2023-03-06T19:59:21.563Z,100.00
2023-03-06T20:04:26.340Z,100.00
2023-03-06T20:09:32.374Z,100.00
2023-03-06T20:14:37.685Z,100.00
2023-03-06T20:19:40.925Z,100.00
2023-03-06T20:24:44.419Z,100.00
2023-03-06T20:29:49.684Z,100.00
2023-03-06T20:34:52.765Z,100.00
2023-03-06T20:39:56.256Z,100.00
2023-03-06T20:45:00.738Z,100.00
2023-03-06T20:50:04.202Z,100.00
2023-03-06T20:55:08.341Z,100.00
2023-03-06T21:00:14.185Z,100.00
2023-03-06T21:05:17.882Z,100.00
2023-03-06T21:10:21.496Z,100.00
2023-03-06T21:15:30.109Z,100.00
2023-03-06T21:20:34.559Z,100.00
2023-03-06T21:25:38.159Z,100.00
2023-03-06T21:30:43.582Z,100.00
2023-03-06T21:35:47.077Z,100.00
2023-03-06T21:40:50.340Z,100.00
2023-03-06T21:45:58.399Z,100.00
2023-03-06T21:51:09.987Z,100.00
2023-03-06T21:56:14.903Z,100.00
2023-03-06T22:01:21.939Z,100.00
2023-03-06T22:06:27.438Z,100.00
2023-03-06T22:11:31.481Z,100.00
2023-03-06T22:16:36.675Z,100.00
2023-03-06T22:21:40.053Z,100.00
2023-03-06T22:26:43.270Z,100.00
2023-03-06T22:31:47.920Z,100.00
2023-03-06T22:36:51.182Z,100.00
2023-03-06T22:41:56.321Z,100.00
2023-03-06T22:47:01.004Z,100.00
2023-03-06T22:52:04.302Z,100.00
2023-03-06T22:57:07.531Z,100.00
2023-03-06T23:02:12.190Z,100.00
2023-03-06T23:07:15.489Z,100.00
2023-03-06T23:12:18.693Z,100.00
2023-03-06T23:17:23.412Z,100.00
2023-03-06T23:22:27.900Z,100.00
2023-03-06T23:27:31.034Z,100.00
2023-03-06T23:32:36.077Z,100.00
2023-03-06T23:37:39.270Z,100.00
2023-03-06T23:42:42.583Z,100.00
2023-03-06T23:48:07.096Z,100.00
2023-03-06T23:53:28.577Z,100.00
2023-03-06T23:58:50.541Z,100.00
